Airport View

Enter AWOS ICAO identifier for current METAR.

ex. KFNL

KHZE 191315Z AUTO 00000KT 6SM HZ FEW031 FEW041 M30/M34 A3030 RMK AO2 TSNO

19 Feb 2019 13:21

Frequency: 118.675

Phone: 701-748-2443

Other Area AWOS: KN60 - KD57 - KY19 - KBIS

TAF KBIS 191127Z 1912/2012 VRB03KT P6SM SKC FM191800 18008KT P6SM FEW200 FM200300 15006KT P6SM BKN030 FM200900 13005KT P6SM BKN015